フランクフルト の空港の天気 - METARとTAF

フランクフルト国際空港 ( EDDF / FRA ) - ドイツ フランクフルト・アム・マイン
飛行場実況気象(Metar)
観測時間06/23 03:20 CEST (06/23 01:20 UTC)
風向・風速北西 5m/s
視程10km以上
天気現象
なし
気温21℃
湿度64%
気圧1013hPa
METAREDDF 230120Z 32009KT CAVOK 21/14 Q1013 NOSIG
過去の天気等 Google飛行場航空写真 Wunderground天気予報

過去48時間のMETAR

飛行場予報(TAF)
発表時間: 6/23 01:00 CEST (6/22 23:00 UTC)
予報対象時間: 23日2時 CEST ~ 24日8時 CEST
風向・風速西 4m/s
視程10km以上
なし
23日13時 CEST ~ 23日22時 CEST に一時的に
風向・風速西 8m/s 瞬間風速 13m/s
TAF EDDF 222300Z 2300/2406 27008KT CAVOK
TEMPO 2311/2320 28015G25KT